createdAt,value
2018-06-14T00:01:59.519Z,2.10
2018-06-14T00:04:27.603Z,2.43
2018-06-14T00:06:55.679Z,2.37
2018-06-14T00:09:23.775Z,2.60
2018-06-14T00:11:51.861Z,2.80
2018-06-14T00:14:19.961Z,2.60
2018-06-14T00:16:48.036Z,2.93
2018-06-14T00:19:16.116Z,2.30
2018-06-14T00:21:44.224Z,2.20
2018-06-14T00:24:12.304Z,1.97
2018-06-14T00:26:40.391Z,2.10
2018-06-14T00:29:08.458Z,2.57
2018-06-14T00:31:36.519Z,2.30
2018-06-14T00:34:04.615Z,2.27
2018-06-14T00:36:32.678Z,2.00
2018-06-14T00:39:00.739Z,2.13
2018-06-14T00:41:28.797Z,1.93
2018-06-14T00:43:56.898Z,2.40
2018-06-14T00:46:25.231Z,2.10
2018-06-14T00:48:53.314Z,1.80
2018-06-14T00:51:21.463Z,1.93
2018-06-14T00:53:49.514Z,1.87
2018-06-14T00:56:17.569Z,2.13
2018-06-14T00:58:45.687Z,2.00
2018-06-14T01:01:13.765Z,1.90
2018-06-14T01:03:41.851Z,2.23
2018-06-14T01:06:09.761Z,2.20
2018-06-14T01:08:37.858Z,1.93
2018-06-14T01:11:06.022Z,1.93
2018-06-14T01:13:34.109Z,1.80
2018-06-14T01:16:02.332Z,2.40
2018-06-14T01:18:30.422Z,2.30
2018-06-14T01:20:58.489Z,2.10
2018-06-14T01:23:26.590Z,1.60
2018-06-14T01:25:54.683Z,2.23
2018-06-14T01:28:22.768Z,1.80
2018-06-14T01:30:50.639Z,2.03
2018-06-14T01:33:18.685Z,1.80
2018-06-14T01:35:46.797Z,2.30
2018-06-14T01:38:26.750Z,1.80
2018-06-14T01:40:55.067Z,2.30
2018-06-14T01:43:23.396Z,2.50
2018-06-14T01:45:51.470Z,2.07
2018-06-14T01:48:19.430Z,2.07
2018-06-14T01:50:47.861Z,2.20
2018-06-14T01:53:16.389Z,1.90
2018-06-14T01:55:44.492Z,2.20
2018-06-14T01:58:12.424Z,2.30
2018-06-14T02:00:40.485Z,1.90
2018-06-14T02:03:08.536Z,1.90
2018-06-14T02:05:36.665Z,1.67
2018-06-14T02:08:04.744Z,2.07
2018-06-14T02:10:32.697Z,2.23
2018-06-14T02:13:00.890Z,1.97
2018-06-14T02:15:29.483Z,2.00
2018-06-14T02:17:58.275Z,2.37
2018-06-14T02:20:26.381Z,2.30
2018-06-14T02:22:54.491Z,2.30
2018-06-14T02:25:22.671Z,2.00
2018-06-14T02:27:50.981Z,2.10
2018-06-14T02:30:19.051Z,2.20
2018-06-14T02:32:47.172Z,2.37
2018-06-14T02:35:15.227Z,2.33
2018-06-14T02:37:43.299Z,1.93
2018-06-14T02:40:12.757Z,2.67
2018-06-14T02:42:41.671Z,2.30
2018-06-14T02:45:09.833Z,1.97
2018-06-14T02:47:37.942Z,2.10
2018-06-14T02:50:06.474Z,2.10
2018-06-14T02:52:35.022Z,2.60
2018-06-14T02:55:03.100Z,2.60
2018-06-14T02:57:31.338Z,2.33
2018-06-14T02:59:59.305Z,2.00
2018-06-14T03:02:27.597Z,2.10
2018-06-14T03:04:55.676Z,1.87
2018-06-14T03:07:29.150Z,2.40
2018-06-14T03:09:57.199Z,1.87
2018-06-14T03:12:25.288Z,1.90
2018-06-14T03:14:53.340Z,2.23
2018-06-14T03:17:22.043Z,2.27
2018-06-14T03:19:51.669Z,2.27
2018-06-14T03:22:20.296Z,2.17
2018-06-14T03:24:48.416Z,2.40
2018-06-14T03:27:16.714Z,2.30
2018-06-14T03:29:44.799Z,2.40
2018-06-14T03:32:12.948Z,2.20
2018-06-14T03:34:41.061Z,2.67
2018-06-14T03:37:10.026Z,2.40
2018-06-14T03:39:38.204Z,2.30
2018-06-14T03:42:08.415Z,2.30
2018-06-14T03:44:37.821Z,2.40
2018-06-14T03:47:07.309Z,2.17
2018-06-14T03:49:36.234Z,2.60
2018-06-14T03:52:04.313Z,2.23
2018-06-14T03:54:32.672Z,2.10
2018-06-14T03:57:00.765Z,2.20
2018-06-14T03:59:28.904Z,2.10
2018-06-14T04:01:56.970Z,2.07
2018-06-14T04:04:25.071Z,2.50
2018-06-14T04:06:53.106Z,2.00
2018-06-14T04:09:21.232Z,1.80
2018-06-14T04:11:49.665Z,2.30
2018-06-14T04:14:17.731Z,2.20
2018-06-14T04:16:45.806Z,2.13
2018-06-14T04:19:14.009Z,2.10
2018-06-14T04:21:42.067Z,2.30
2018-06-14T04:24:10.253Z,2.27
2018-06-14T04:26:38.387Z,2.10
2018-06-14T04:29:06.706Z,2.20
2018-06-14T04:31:34.800Z,2.43
2018-06-14T04:34:03.153Z,2.03
2018-06-14T04:36:31.211Z,1.90
2018-06-14T04:38:59.283Z,2.30
2018-06-14T04:41:27.350Z,2.50
2018-06-14T04:43:55.619Z,2.30
2018-06-14T04:46:23.737Z,2.50
2018-06-14T04:48:51.946Z,2.93
2018-06-14T04:51:20.035Z,2.60
2018-06-14T04:53:48.112Z,2.70
2018-06-14T04:56:16.439Z,2.70
2018-06-14T04:58:44.514Z,2.23
2018-06-14T05:01:12.630Z,2.50
2018-06-14T05:03:40.720Z,2.80
2018-06-14T05:06:08.879Z,2.83
2018-06-14T05:08:36.947Z,2.60
2018-06-14T05:11:05.043Z,2.70
2018-06-14T05:13:33.116Z,2.60
2018-06-14T05:16:01.219Z,2.77
2018-06-14T05:18:29.324Z,3.20
2018-06-14T05:20:57.431Z,2.63
2018-06-14T05:23:25.498Z,2.80
2018-06-14T05:25:53.597Z,2.53
2018-06-14T05:28:21.672Z,2.93
2018-06-14T05:30:49.739Z,2.93
2018-06-14T05:33:17.806Z,2.83
2018-06-14T05:35:45.883Z,2.77
2018-06-14T05:38:13.981Z,2.80
2018-06-14T05:40:42.024Z,2.90
2018-06-14T05:43:10.164Z,2.60
2018-06-14T05:45:38.259Z,2.97
2018-06-14T05:48:06.435Z,2.83
2018-06-14T05:50:34.552Z,3.27
2018-06-14T05:53:09.412Z,2.87
2018-06-14T05:55:37.535Z,2.90
2018-06-14T05:58:05.580Z,3.00
2018-06-14T06:00:33.680Z,2.97
2018-06-14T06:03:01.753Z,2.57
2018-06-14T06:05:29.835Z,2.70
2018-06-14T06:07:57.934Z,12.10
2018-06-14T06:10:25.798Z,3.20
2018-06-14T06:12:54.274Z,2.80
2018-06-14T06:15:22.326Z,2.57
2018-06-14T06:17:50.405Z,2.53
2018-06-14T06:20:18.927Z,2.70
2018-06-14T06:22:47.331Z,2.73
2018-06-14T06:25:15.590Z,2.90
2018-06-14T06:27:43.697Z,2.80
2018-06-14T06:30:11.752Z,2.53
2018-06-14T06:32:39.831Z,2.70
2018-06-14T06:35:07.866Z,2.70
2018-06-14T06:37:36.037Z,3.23
2018-06-14T06:40:04.154Z,2.83
2018-06-14T06:42:32.544Z,2.80
2018-06-14T06:45:00.618Z,2.70
2018-06-14T06:47:28.674Z,2.80
2018-06-14T06:49:56.850Z,2.33
2018-06-14T06:52:24.970Z,2.23
2018-06-14T06:54:53.065Z,2.37
2018-06-14T06:57:22.109Z,3.17
2018-06-14T06:59:50.156Z,3.20
2018-06-14T07:02:18.237Z,2.70
2018-06-14T07:04:46.306Z,5.70
2018-06-14T07:07:14.370Z,3.03
2018-06-14T07:09:42.431Z,2.70
2018-06-14T07:12:10.290Z,2.80
2018-06-14T07:14:38.383Z,2.63
2018-06-14T07:17:06.442Z,2.90
2018-06-14T07:19:34.504Z,3.03
2018-06-14T07:22:02.627Z,2.77
2018-06-14T07:24:30.683Z,2.70
2018-06-14T07:26:58.839Z,3.10
2018-06-14T07:29:26.956Z,3.03
2018-06-14T07:31:55.027Z,3.20
2018-06-14T07:34:23.096Z,2.80
2018-06-14T07:36:51.218Z,2.57
2018-06-14T07:39:19.317Z,2.60
2018-06-14T07:41:47.411Z,2.73
2018-06-14T07:44:15.519Z,2.70
2018-06-14T07:46:43.588Z,3.00
2018-06-14T07:49:11.701Z,2.50
2018-06-14T07:51:39.770Z,3.00
2018-06-14T07:54:07.764Z,2.67
2018-06-14T07:56:35.822Z,3.23
2018-06-14T07:59:03.795Z,2.77
2018-06-14T08:01:31.904Z,2.43
2018-06-14T08:03:59.986Z,2.60
2018-06-14T08:06:28.156Z,2.40
2018-06-14T08:08:56.225Z,3.00
2018-06-14T08:11:24.306Z,2.40
2018-06-14T08:13:52.452Z,3.00
2018-06-14T08:16:20.545Z,2.90
2018-06-14T08:18:48.647Z,2.60
2018-06-14T08:21:16.719Z,2.50
2018-06-14T08:23:44.788Z,11.60
2018-06-14T08:26:12.870Z,2.97
2018-06-14T08:28:40.989Z,2.40
2018-06-14T08:31:09.050Z,1.90
2018-06-14T08:33:37.143Z,2.00
2018-06-14T08:36:05.308Z,2.40
2018-06-14T08:38:33.395Z,2.63
2018-06-14T08:41:01.471Z,2.73
2018-06-14T08:43:29.578Z,3.10
2018-06-14T08:45:57.678Z,2.43
2018-06-14T08:48:25.779Z,2.63
2018-06-14T08:50:53.879Z,2.30
2018-06-14T08:53:21.952Z,3.20
2018-06-14T08:55:50.014Z,1.90
2018-06-14T08:58:18.084Z,2.33
2018-06-14T09:00:46.179Z,2.53
2018-06-14T09:03:14.250Z,2.30
2018-06-14T09:05:42.376Z,2.10
2018-06-14T09:08:10.493Z,2.50
2018-06-14T09:10:38.603Z,2.13
2018-06-14T09:13:06.695Z,2.00
2018-06-14T09:15:34.838Z,1.97
2018-06-14T09:18:02.899Z,1.90
2018-06-14T09:20:30.976Z,2.50
2018-06-14T09:22:59.060Z,2.17
2018-06-14T09:25:27.127Z,1.90
2018-06-14T09:27:55.213Z,2.30
2018-06-14T09:30:23.285Z,2.30
2018-06-14T09:32:51.355Z,2.13
2018-06-14T09:35:19.410Z,2.20
2018-06-14T09:37:47.507Z,2.40
2018-06-14T09:40:15.558Z,2.00
2018-06-14T09:42:43.679Z,1.87
2018-06-14T09:45:11.752Z,1.90
2018-06-14T09:47:39.882Z,2.50
2018-06-14T09:50:07.935Z,2.00
2018-06-14T09:52:36.032Z,2.10
2018-06-14T09:55:04.105Z,2.10
2018-06-14T09:57:32.204Z,2.30
2018-06-14T10:00:00.298Z,2.37
2018-06-14T10:02:28.456Z,2.00
2018-06-14T10:04:56.619Z,2.17
2018-06-14T10:07:24.986Z,1.90
2018-06-14T10:09:53.071Z,1.83
2018-06-14T10:12:21.191Z,1.80
2018-06-14T10:14:49.249Z,1.87
2018-06-14T10:17:17.351Z,1.97
2018-06-14T10:19:45.425Z,2.00
2018-06-14T10:22:13.522Z,2.10
2018-06-14T10:24:41.628Z,1.90
2018-06-14T10:27:09.725Z,1.80
2018-06-14T10:29:37.807Z,1.93
2018-06-14T10:32:05.988Z,2.10
2018-06-14T10:34:34.160Z,1.87
2018-06-14T10:37:02.275Z,1.90
2018-06-14T10:39:30.423Z,2.00
2018-06-14T10:41:58.523Z,2.20
2018-06-14T10:44:26.836Z,2.30
2018-06-14T10:46:55.042Z,2.23
2018-06-14T10:49:23.204Z,2.10
2018-06-14T10:51:51.294Z,2.37
2018-06-14T10:54:19.433Z,2.10
2018-06-14T10:56:47.695Z,2.00
2018-06-14T10:59:15.840Z,2.20
2018-06-14T11:01:43.954Z,2.30
2018-06-14T11:04:11.983Z,1.90
2018-06-14T11:09:14.777Z,2.10
2018-06-14T11:11:42.853Z,2.23
2018-06-14T11:14:10.918Z,1.93
2018-06-14T11:16:39.017Z,2.30
2018-06-14T11:19:07.083Z,2.03
2018-06-14T11:21:35.184Z,1.90
2018-06-14T11:24:03.475Z,1.97
2018-06-14T11:26:31.543Z,2.07
2018-06-14T11:28:59.599Z,2.23
2018-06-14T11:31:27.656Z,2.00
2018-06-14T11:33:55.919Z,1.90
2018-06-14T11:36:23.970Z,1.97
2018-06-14T11:38:52.059Z,1.80
2018-06-14T11:41:20.152Z,1.97
2018-06-14T11:43:48.244Z,2.50
2018-06-14T11:46:16.418Z,2.23
2018-06-14T11:48:44.519Z,2.50
2018-06-14T11:51:12.590Z,2.40
2018-06-14T11:53:40.666Z,2.97
2018-06-14T11:56:08.751Z,2.50
2018-06-14T11:58:36.847Z,2.87
2018-06-14T12:01:04.944Z,3.90
2018-06-14T12:03:32.994Z,2.33
2018-06-14T12:06:01.084Z,2.57
2018-06-14T12:08:29.189Z,2.70
2018-06-14T12:10:57.328Z,2.67
2018-06-14T12:13:25.398Z,2.20
2018-06-14T12:15:53.460Z,2.70
2018-06-14T12:18:21.521Z,2.30
2018-06-14T12:20:49.615Z,3.00
2018-06-14T12:23:17.682Z,1.90
2018-06-14T12:25:45.753Z,3.13
2018-06-14T12:28:13.912Z,2.57
2018-06-14T12:30:42.001Z,2.70
2018-06-14T12:33:10.066Z,2.50
2018-06-14T12:35:38.150Z,2.80
2018-06-14T12:38:06.223Z,2.57
2018-06-14T12:40:34.279Z,2.10
2018-06-14T12:43:02.379Z,2.87
2018-06-14T12:45:30.449Z,2.30
2018-06-14T12:47:58.478Z,2.47
2018-06-14T12:50:26.531Z,1.93
2018-06-14T12:52:54.610Z,1.90
2018-06-14T12:55:22.703Z,2.53
2018-06-14T12:57:50.760Z,2.50
2018-06-14T13:00:18.866Z,2.40
2018-06-14T13:02:46.947Z,2.50
2018-06-14T13:05:15.016Z,2.40
2018-06-14T13:07:43.104Z,2.40
2018-06-14T13:10:11.175Z,2.47
2018-06-14T13:12:39.260Z,2.60
2018-06-14T13:15:07.335Z,2.50
2018-06-14T13:17:35.411Z,2.10
2018-06-14T13:20:03.485Z,2.00
2018-06-14T13:22:31.593Z,2.70
2018-06-14T13:24:59.656Z,2.40
2018-06-14T13:27:27.777Z,2.20
2018-06-14T13:29:55.845Z,1.90
2018-06-14T13:32:23.903Z,2.73
2018-06-14T13:34:51.948Z,2.03
2018-06-14T13:37:20.020Z,2.17
2018-06-14T13:39:48.102Z,2.27
2018-06-14T13:42:16.216Z,5.80
2018-06-14T13:44:44.323Z,2.10
2018-06-14T13:47:12.379Z,2.60
2018-06-14T13:49:40.436Z,1.97
2018-06-14T13:52:08.519Z,2.60
2018-06-14T13:54:36.577Z,2.27
2018-06-14T13:57:04.676Z,2.20
2018-06-14T13:59:32.723Z,2.00
2018-06-14T14:02:00.776Z,2.30
2018-06-14T14:04:28.728Z,2.97
2018-06-14T14:07:02.212Z,2.00
2018-06-14T14:09:30.300Z,1.90
2018-06-14T14:11:58.410Z,1.80
2018-06-14T14:14:26.533Z,2.50
2018-06-14T14:16:54.626Z,2.20
2018-06-14T14:19:22.924Z,2.03
2018-06-14T14:21:51.081Z,2.63
2018-06-14T14:24:19.355Z,2.53
2018-06-14T14:26:47.779Z,3.70
2018-06-14T14:29:15.866Z,2.20
2018-06-14T14:31:43.922Z,2.27
2018-06-14T14:34:11.991Z,2.17
2018-06-14T14:36:40.033Z,2.30
2018-06-14T14:39:09.636Z,2.87
2018-06-14T14:41:37.770Z,2.33
2018-06-14T14:44:06.191Z,2.70
2018-06-14T14:46:34.077Z,2.30
2018-06-14T14:49:02.238Z,2.77
2018-06-14T14:51:30.366Z,2.90
2018-06-14T14:53:58.440Z,2.93
2018-06-14T14:56:26.512Z,3.00
2018-06-14T14:58:54.573Z,2.57
2018-06-14T15:01:22.706Z,2.57
2018-06-14T15:03:50.835Z,2.30
2018-06-14T15:06:18.900Z,2.13
2018-06-14T15:08:46.992Z,2.80
2018-06-14T15:11:15.237Z,2.80
2018-06-14T15:13:43.482Z,2.73
2018-06-14T15:16:11.564Z,2.57
2018-06-14T15:18:39.687Z,2.27
2018-06-14T15:21:07.757Z,2.47
2018-06-14T15:23:35.813Z,2.50
2018-06-14T15:26:03.887Z,2.80
2018-06-14T15:28:32.024Z,3.33
2018-06-14T15:31:00.091Z,2.63
2018-06-14T15:33:28.415Z,2.60
2018-06-14T15:35:56.446Z,2.70
2018-06-14T15:38:24.417Z,2.20
2018-06-14T15:40:52.512Z,2.30
2018-06-14T15:43:20.618Z,2.40
2018-06-14T15:45:48.714Z,2.90
2018-06-14T15:48:16.970Z,2.50
2018-06-14T15:50:45.830Z,3.43
2018-06-14T15:53:13.891Z,2.60
2018-06-14T15:56:10.733Z,2.40
2018-06-14T15:58:38.862Z,2.60
2018-06-14T16:01:07.295Z,2.90
2018-06-14T16:03:35.339Z,2.90
2018-06-14T16:06:03.445Z,3.90
2018-06-14T16:08:31.814Z,3.10
2018-06-14T16:10:59.888Z,2.40
2018-06-14T16:13:28.000Z,2.80
2018-06-14T16:15:56.063Z,3.07
2018-06-14T16:18:24.135Z,2.27
2018-06-14T16:20:52.240Z,1.90
2018-06-14T16:23:20.348Z,2.80
2018-06-14T16:25:48.439Z,2.67
2018-06-14T16:28:16.546Z,2.97
2018-06-14T16:30:44.632Z,2.73
2018-06-14T16:33:12.809Z,2.53
2018-06-14T16:35:40.875Z,2.67
2018-06-14T16:38:08.990Z,3.00
2018-06-14T16:40:37.062Z,2.80
2018-06-14T16:43:05.404Z,2.57
2018-06-14T16:45:33.597Z,2.43
2018-06-14T16:48:01.674Z,2.90
2018-06-14T16:50:29.793Z,2.57
2018-06-14T16:52:57.864Z,2.83
2018-06-14T16:55:26.223Z,2.70
2018-06-14T16:57:54.319Z,2.90
2018-06-14T17:00:22.379Z,2.20
2018-06-14T17:02:50.450Z,3.13
2018-06-14T17:05:18.651Z,2.83
2018-06-14T17:07:46.976Z,3.07
2018-06-14T17:10:15.158Z,3.10
2018-06-14T17:12:43.147Z,3.20
2018-06-14T17:15:11.231Z,3.10
2018-06-14T17:17:39.333Z,2.93
2018-06-14T17:20:07.530Z,2.20
2018-06-14T17:22:35.674Z,2.50
2018-06-14T17:25:04.070Z,2.70
2018-06-14T17:27:32.157Z,2.37
2018-06-14T17:30:00.203Z,2.60
2018-06-14T17:32:28.307Z,2.50
2018-06-14T17:34:56.506Z,2.23
2018-06-14T17:37:24.674Z,2.30
2018-06-14T17:39:52.719Z,2.63
2018-06-14T17:42:20.790Z,2.43
2018-06-14T17:44:48.870Z,3.20
2018-06-14T17:47:16.956Z,2.80
2018-06-14T17:49:44.998Z,2.40
2018-06-14T17:52:13.112Z,2.30
2018-06-14T17:54:41.201Z,2.70
2018-06-14T17:57:09.313Z,2.10
2018-06-14T17:59:37.415Z,2.20
2018-06-14T18:02:05.670Z,2.30
2018-06-14T18:04:33.779Z,2.20
2018-06-14T18:07:01.856Z,2.13
2018-06-14T18:09:29.963Z,2.30
2018-06-14T18:11:58.114Z,2.20
2018-06-14T18:14:26.359Z,2.40
2018-06-14T18:16:54.538Z,2.70
2018-06-14T18:19:22.588Z,2.60
2018-06-14T18:21:50.705Z,2.53
2018-06-14T18:24:18.827Z,2.10
2018-06-14T18:26:47.175Z,2.33
2018-06-14T18:29:15.306Z,2.70
2018-06-14T18:31:43.393Z,2.43
2018-06-14T18:34:11.514Z,2.30
2018-06-14T18:36:39.600Z,2.60
2018-06-14T18:39:09.288Z,2.67
2018-06-14T18:41:37.433Z,2.47
2018-06-14T18:44:06.621Z,2.63
2018-06-14T18:46:34.759Z,2.57
2018-06-14T18:49:03.144Z,2.60
2018-06-14T18:51:31.308Z,3.07
2018-06-14T18:53:59.409Z,2.80
2018-06-14T18:56:27.590Z,2.83
2018-06-14T18:58:55.706Z,2.93
2018-06-14T19:01:24.581Z,3.27
2018-06-14T19:03:52.893Z,2.77
2018-06-14T19:06:21.590Z,3.10
2018-06-14T19:08:49.751Z,3.23
2018-06-14T19:11:17.879Z,3.03
2018-06-14T19:13:45.999Z,3.00
2018-06-14T19:16:14.162Z,2.83
2018-06-14T19:18:42.237Z,3.33
2018-06-14T19:21:10.169Z,2.67
2018-06-14T19:23:38.282Z,3.40
2018-06-14T19:26:06.414Z,3.93
2018-06-14T19:28:34.516Z,4.73
2018-06-14T19:31:02.640Z,3.40
2018-06-14T19:33:30.788Z,3.60
2018-06-14T19:35:58.883Z,3.47
2018-06-14T19:38:27.032Z,3.43
2018-06-14T19:40:55.136Z,5.60
2018-06-14T19:43:23.284Z,3.67
2018-06-14T19:45:51.492Z,4.23
2018-06-14T19:48:19.633Z,4.00
2018-06-14T19:50:47.756Z,4.73
2018-06-14T19:53:15.870Z,5.60
2018-06-14T19:55:43.780Z,5.13
2018-06-14T19:58:11.887Z,5.30
2018-06-14T20:00:40.000Z,5.63
2018-06-14T20:03:08.108Z,6.30
2018-06-14T20:05:36.228Z,6.63
2018-06-14T20:08:04.298Z,7.27
2018-06-14T20:10:32.303Z,6.60
2018-06-14T20:13:00.402Z,6.60
2018-06-14T20:15:28.482Z,9.70
2018-06-14T20:17:56.660Z,9.87
2018-06-14T20:20:25.609Z,9.33
2018-06-14T20:22:53.714Z,21.33
2018-06-14T20:25:22.937Z,14.47
2018-06-14T20:27:51.089Z,11.73
2018-06-14T20:30:19.181Z,10.17
2018-06-14T20:32:47.261Z,9.17
2018-06-14T20:35:15.392Z,8.87
2018-06-14T20:37:43.513Z,7.30
2018-06-14T20:40:11.682Z,6.70
2018-06-14T20:42:39.782Z,7.83
2018-06-14T20:45:08.031Z,6.53
2018-06-14T20:47:36.160Z,7.50
2018-06-14T20:50:04.232Z,7.33
2018-06-14T20:52:32.404Z,7.77
2018-06-14T20:55:00.401Z,7.43
2018-06-14T20:57:28.551Z,7.13
2018-06-14T20:59:56.590Z,6.43
2018-06-14T21:02:24.779Z,6.73
2018-06-14T21:04:52.745Z,7.10
2018-06-14T21:07:20.831Z,6.80
2018-06-14T21:09:48.928Z,7.10
2018-06-14T21:12:17.011Z,6.87
2018-06-14T21:14:45.266Z,6.63
2018-06-14T21:17:13.385Z,6.30
2018-06-14T21:19:41.486Z,7.27
2018-06-14T21:22:09.558Z,6.20
2018-06-14T21:24:37.601Z,6.73
2018-06-14T21:27:05.724Z,6.33
2018-06-14T21:29:33.807Z,6.43
2018-06-14T21:32:01.885Z,6.47
2018-06-14T21:34:29.952Z,5.53
2018-06-14T21:36:58.050Z,5.73
2018-06-14T21:39:26.149Z,6.17
2018-06-14T21:41:54.267Z,6.40
2018-06-14T21:44:22.348Z,5.97
2018-06-14T21:46:50.459Z,6.03
2018-06-14T21:49:18.544Z,6.10
2018-06-14T21:51:46.642Z,5.90
2018-06-14T21:54:14.750Z,6.03
2018-06-14T21:56:42.958Z,5.80
2018-06-14T21:59:11.338Z,5.77
2018-06-14T22:01:39.466Z,6.27
2018-06-14T22:04:07.546Z,6.20
2018-06-14T22:06:35.625Z,6.10
2018-06-14T22:09:04.477Z,6.10
2018-06-14T22:11:32.547Z,6.17
2018-06-14T22:14:00.683Z,6.40
2018-06-14T22:16:28.749Z,5.80
2018-06-14T22:18:56.873Z,6.17
2018-06-14T22:21:24.919Z,5.60
2018-06-14T22:23:52.997Z,6.63
2018-06-14T22:26:21.053Z,6.17
2018-06-14T22:28:49.119Z,6.67
2018-06-14T22:31:17.207Z,5.83
2018-06-14T22:33:56.687Z,6.47
2018-06-14T22:36:24.791Z,6.27
2018-06-14T22:38:52.859Z,6.27
2018-06-14T22:41:20.908Z,6.90
2018-06-14T22:43:48.997Z,6.40
2018-06-14T22:46:17.071Z,6.77
2018-06-14T22:48:45.050Z,7.37
2018-06-14T22:51:18.638Z,6.67
2018-06-14T22:53:47.020Z,6.87
2018-06-14T22:56:15.137Z,6.57
2018-06-14T22:58:43.393Z,6.37
2018-06-14T23:01:45.739Z,7.00
2018-06-14T23:04:15.376Z,8.60
2018-06-14T23:06:43.488Z,8.90
2018-06-14T23:10:23.306Z,8.33
2018-06-14T23:12:51.355Z,7.70
2018-06-14T23:15:19.681Z,8.30
2018-06-14T23:17:48.453Z,8.40
2018-06-14T23:20:17.544Z,8.17
2018-06-14T23:22:46.829Z,8.20
2018-06-14T23:25:15.141Z,7.47
2018-06-14T23:27:43.384Z,7.93
2018-06-14T23:30:11.460Z,7.70
2018-06-14T23:32:39.332Z,7.23
2018-06-14T23:35:07.440Z,8.00
2018-06-14T23:37:35.520Z,6.77
2018-06-14T23:40:03.636Z,7.20
2018-06-14T23:42:31.719Z,7.20
2018-06-14T23:44:59.810Z,7.30
2018-06-14T23:47:28.270Z,7.57
2018-06-14T23:49:56.802Z,6.83
2018-06-14T23:52:25.031Z,7.03
2018-06-14T23:54:53.130Z,6.60
2018-06-14T23:57:21.210Z,7.20
2018-06-14T23:59:49.999Z,7.17
